Time;durP1;ratioP1;P1;durP2;ratioP2;P2;SDS_P1;SDS_P2;PMS_P1;PMS_P2;Temp;Humidity;BMP_temperature;BMP_pressure;BME280_temperature;BME280_humidity;BME280_pressure;Samples;Min_cycle;Max_cycle;Signal;HPM_P1;HPM_P2
2023/02/22 00:00:42;;;;;;;8.90;3.37;;;8.40;99.90;;;;;;5054316;28;20475;-65
2023/02/22 00:03:17;;;;;;;8.43;4.00;;;8.40;99.90;;;;;;5063673;28;20707;-65
2023/02/22 00:05:46;;;;;;;10.60;2.30;;;8.30;99.90;;;;;;5056837;28;20441;-65
2023/02/22 00:08:15;;;;;;;11.67;2.77;;;8.30;99.90;;;;;;5063568;22;20496;-68
2023/02/22 00:10:42;;;;;;;9.80;2.20;;;8.30;99.90;;;;;;5030591;28;20862;-68
2023/02/22 00:13:09;;;;;;;10.43;3.47;;;8.30;99.90;;;;;;5037530;28;20395;-68
2023/02/22 00:15:35;;;;;;;5.97;2.00;;;8.30;99.90;;;;;;5033510;28;20866;-68
2023/02/22 00:18:03;;;;;;;6.27;2.70;;;8.20;99.90;;;;;;5035283;28;20457;-69
2023/02/22 00:20:29;;;;;;;9.67;3.07;;;8.20;99.90;;;;;;5041395;28;20987;-68
2023/02/22 00:22:55;;;;;;;12.20;4.37;;;8.20;99.90;;;;;;5043818;28;20410;-69
2023/02/22 00:25:23;;;;;;;7.50;3.67;;;8.20;99.90;;;;;;5042499;28;20835;-68
2023/02/22 00:27:51;;;;;;;12.00;3.47;;;8.20;99.90;;;;;;5042610;28;20893;-67
2023/02/22 00:30:20;;;;;;;12.97;3.47;;;8.20;99.90;;;;;;5042957;28;20463;-68
2023/02/22 00:32:47;;;;;;;7.40;2.87;;;8.20;99.90;;;;;;5026227;28;20438;-69
2023/02/22 00:35:15;;;;;;;10.50;2.90;;;8.20;99.90;;;;;;5033049;28;20413;-68
2023/02/22 00:37:41;;;;;;;8.47;3.60;;;8.20;99.90;;;;;;5026644;28;20881;-68
2023/02/22 00:40:13;;;;;;;10.30;2.87;;;8.20;99.90;;;;;;5027782;28;20588;-68
2023/02/22 00:42:39;;;;;;;11.93;2.93;;;8.10;99.90;;;;;;5035683;28;20411;-68
2023/02/22 00:45:06;;;;;;;8.60;3.00;;;8.10;99.90;;;;;;5043248;28;20786;-68
2023/02/22 00:47:32;;;;;;;5.83;2.60;;;8.00;99.90;;;;;;5041860;28;20650;-67
2023/02/22 00:49:59;;;;;;;11.17;3.87;;;8.00;99.90;;;;;;5040058;28;20431;-67
2023/02/22 00:52:26;;;;;;;10.20;3.20;;;8.00;99.90;;;;;;5035644;28;20500;-69
2023/02/22 00:54:53;;;;;;;10.60;3.03;;;8.10;99.90;;;;;;5037941;28;20459;-67
2023/02/22 00:57:19;;;;;;;11.17;3.60;;;8.10;99.90;;;;;;5029749;28;21131;-67
2023/02/22 00:59:45;;;;;;;10.40;3.03;;;8.10;99.90;;;;;;5034059;28;20944;-69
2023/02/22 01:02:11;;;;;;;13.10;4.20;;;8.10;99.90;;;;;;5038827;28;20441;-69
2023/02/22 01:04:36;;;;;;;7.50;2.30;;;7.80;99.90;;;;;;5040295;28;20441;-68
2023/02/22 01:07:02;;;;;;;8.93;2.77;;;7.90;99.90;;;;;;5042121;28;20655;-67
2023/02/22 01:09:28;;;;;;;8.63;2.60;;;7.90;99.90;;;;;;5042502;28;20211;-69
2023/02/22 01:11:54;;;;;;;9.97;3.73;;;7.80;99.90;;;;;;5039777;28;20164;-67
2023/02/22 01:14:21;;;;;;;7.80;3.40;;;7.80;99.90;;;;;;5012069;28;20180;-68
2023/02/22 01:16:47;;;;;;;6.37;2.33;;;7.80;99.90;;;;;;5029215;28;20458;-68
2023/02/22 01:19:12;;;;;;;11.53;3.03;;;8.00;99.90;;;;;;5041747;28;20961;-67
2023/02/22 01:21:39;;;;;;;14.80;3.00;;;7.80;99.90;;;;;;5041363;28;20164;-68
2023/02/22 01:24:05;;;;;;;9.53;3.40;;;7.70;99.90;;;;;;5046255;28;20356;-67
2023/02/22 01:26:31;;;;;;;13.70;4.77;;;7.80;99.90;;;;;;5045660;28;20458;-69
2023/02/22 01:28:57;;;;;;;6.60;2.80;;;7.90;99.90;;;;;;5046836;28;20235;-67
2023/02/22 01:31:22;;;;;;;21.47;3.97;;;7.80;99.90;;;;;;5031461;28;20172;-68
2023/02/22 01:33:49;;;;;;;17.17;4.00;;;7.80;99.90;;;;;;5042044;28;20180;-68
2023/02/22 01:36:15;;;;;;;15.67;3.00;;;7.80;99.90;;;;;;5035654;28;20172;-68
2023/02/22 01:38:41;;;;;;;9.83;3.10;;;7.90;99.90;;;;;;5046232;28;20468;-68
2023/02/22 01:41:07;;;;;;;13.83;3.80;;;7.60;99.90;;;;;;5044765;28;20431;-67
2023/02/22 01:43:33;;;;;;;9.50;2.97;;;7.50;99.90;;;;;;5040244;28;20407;-69
2023/02/22 01:46:17;;;;;;;8.70;2.60;;;7.50;99.90;;;;;;5042747;28;20206;-68
2023/02/22 01:48:48;;;;;;;6.03;2.50;;;7.50;99.90;;;;;;5030108;28;20214;-68
2023/02/22 01:51:29;;;;;;;14.10;3.07;;;7.50;99.90;;;;;;5038846;28;20403;-68
2023/02/22 01:54:00;;;;;;;7.90;2.97;;;7.50;99.90;;;;;;5044338;28;20405;-67
2023/02/22 01:56:29;;;;;;;18.10;3.87;;;7.50;99.90;;;;;;5042314;28;20586;-67
2023/02/22 01:59:02;;;;;;;10.47;3.50;;;7.60;99.90;;;;;;5034786;28;20457;-68
2023/02/22 02:01:28;;;;;;;10.17;3.17;;;7.60;99.90;;;;;;5048396;28;20741;-68
2023/02/22 02:03:57;;;;;;;10.90;3.50;;;7.60;99.90;;;;;;5040656;28;20406;-69
2023/02/22 02:06:23;;;;;;;13.63;2.93;;;7.60;99.90;;;;;;5035048;28;20415;-68
2023/02/22 02:08:59;;;;;;;13.93;3.97;;;7.80;99.90;;;;;;5046380;28;20447;-69
2023/02/22 02:11:25;;;;;;;10.20;3.53;;;7.90;99.90;;;;;;5048404;28;20397;-70
2023/02/22 02:13:54;;;;;;;10.87;2.73;;;7.70;99.90;;;;;;5042784;28;20540;-67
2023/02/22 02:16:22;;;;;;;10.57;2.53;;;7.60;99.90;;;;;;5036589;28;20763;-68
2023/02/22 02:18:47;;;;;;;9.33;2.77;;;7.60;99.90;;;;;;5041502;28;20453;-68
2023/02/22 02:21:33;;;;;;;6.67;2.50;;;7.60;99.90;;;;;;5040188;28;20910;-69
2023/02/22 02:24:34;;;;;;;12.70;3.40;;;7.70;99.90;;;;;;5041186;28;20425;-68
2023/02/22 02:27:11;;;;;;;8.40;2.57;;;7.60;99.90;;;;;;5027538;28;20421;-68
2023/02/22 02:30:05;;;;;;;5.10;2.77;;;7.60;99.90;;;;;;5041484;28;20453;-68
2023/02/22 02:32:54;;;;;;;11.40;3.20;;;7.50;99.90;;;;;;5042188;28;20457;-68
2023/02/22 02:35:27;;;;;;;9.40;3.30;;;7.60;99.90;;;;;;5031190;28;20801;-70
2023/02/22 02:38:05;;;;;;;10.47;3.73;;;7.90;99.90;;;;;;5032569;28;20509;-67
2023/02/22 02:41:11;;;;;;;7.07;3.00;;;7.80;99.90;;;;;;5029776;28;20438;-69
2023/02/22 02:43:50;;;;;;;16.93;3.37;;;7.80;99.90;;;;;;5001542;28;20434;-68
2023/02/22 02:46:25;;;;;;;6.97;2.27;;;8.00;99.90;;;;;;5026124;28;20926;-68
2023/02/22 02:48:57;;;;;;;8.70;3.30;;;7.90;99.90;;;;;;5030919;28;20445;-68
2023/02/22 02:51:29;;;;;;;14.53;3.33;;;7.80;99.90;;;;;;5027119;28;21043;-69
2023/02/22 02:53:55;;;;;;;12.70;2.73;;;7.80;99.90;;;;;;5032505;28;20478;-68
2023/02/22 02:56:22;;;;;;;8.13;3.10;;;8.00;99.90;;;;;;5027678;28;20521;-72
2023/02/22 02:58:51;;;;;;;12.13;3.13;;;7.90;99.90;;;;;;5028969;28;20454;-70
2023/02/22 03:01:37;;;;;;;16.13;3.70;;;7.90;99.90;;;;;;5019147;28;20926;-69
2023/02/22 03:04:27;;;;;;;6.07;2.27;;;7.90;99.90;;;;;;4974647;28;20421;-70
2023/02/22 03:07:22;;;;;;;13.33;3.03;;;8.00;99.90;;;;;;5025337;28;20445;-70
2023/02/22 03:10:12;;;;;;;10.60;3.30;;;8.10;99.90;;;;;;5030784;28;20470;-71
2023/02/22 03:12:48;;;;;;;18.87;4.90;;;8.00;99.90;;;;;;5008922;28;20955;-69
2023/02/22 03:15:41;;;;;;;10.10;2.90;;;8.00;99.90;;;;;;5027037;28;20547;-69
2023/02/22 03:18:16;;;;;;;7.50;3.00;;;7.70;99.90;;;;;;5026484;28;20476;-71
2023/02/22 03:21:09;;;;;;;9.17;3.20;;;7.60;99.90;;;;;;5025373;28;20969;-69
2023/02/22 03:23:50;;;;;;;9.10;2.27;;;7.70;99.90;;;;;;5028874;28;20434;-70
2023/02/22 03:26:24;;;;;;;9.47;3.63;;;7.70;99.90;;;;;;5024035;28;20424;-69
2023/02/22 03:28:54;;;;;;;10.97;4.33;;;7.70;99.90;;;;;;5025565;28;20550;-70
2023/02/22 03:31:27;;;;;;;10.53;3.57;;;7.70;99.90;;;;;;5024964;28;20427;-70
2023/02/22 03:33:59;;;;;;;10.03;3.20;;;7.80;99.90;;;;;;5029022;28;20454;-70
2023/02/22 03:36:29;;;;;;;8.30;4.50;;;7.90;99.90;;;;;;5022646;28;20513;-70
2023/02/22 03:38:58;;;;;;;15.90;2.93;;;8.00;99.90;;;;;;5026392;28;20491;-69
2023/02/22 03:41:25;;;;;;;7.63;2.73;;;8.00;99.90;;;;;;5025698;28;20440;-70
2023/02/22 03:44:15;;;;;;;8.50;3.10;;;8.00;99.90;;;;;;5029132;28;20435;-69
2023/02/22 03:46:42;;;;;;;9.90;3.00;;;8.00;99.90;;;;;;5024251;28;20498;-70
2023/02/22 03:49:22;;;;;;;20.80;4.13;;;8.10;99.90;;;;;;5024845;28;20467;-70
2023/02/22 03:51:48;;;;;;;6.53;2.70;;;8.20;99.90;;;;;;5023182;28;20435;-69
2023/02/22 03:54:15;;;;;;;7.17;3.07;;;8.00;99.90;;;;;;5011788;28;20820;-70
2023/02/22 03:56:52;;;;;;;16.47;3.43;;;8.00;99.90;;;;;;5027825;28;20496;-70
2023/02/22 03:59:24;;;;;;;12.20;3.97;;;8.00;99.90;;;;;;5020566;28;20454;-71
2023/02/22 04:01:50;;;;;;;6.97;2.73;;;8.00;99.90;;;;;;5029693;28;20952;-70
2023/02/22 04:04:17;;;;;;;7.60;2.60;;;8.00;99.90;;;;;;5024141;28;20420;-70
2023/02/22 04:06:43;;;;;;;9.83;3.63;;;8.10;99.90;;;;;;5027287;28;20555;-70
2023/02/22 04:09:08;;;;;;;10.73;3.90;;;8.10;99.90;;;;;;5024641;28;20478;-71
2023/02/22 04:11:34;;;;;;;20.47;4.17;;;8.00;99.90;;;;;;5027414;28;20434;-70
2023/02/22 04:14:00;;;;;;;8.30;3.77;;;7.90;99.90;;;;;;5033536;28;20183;-69
2023/02/22 04:16:25;;;;;;;8.07;3.03;;;8.10;99.90;;;;;;5027571;28;20195;-70
2023/02/22 04:18:51;;;;;;;8.80;2.93;;;7.90;99.90;;;;;;5027431;28;20202;-71
2023/02/22 04:21:16;;;;;;;11.97;3.20;;;8.00;99.90;;;;;;5040770;28;20176;-69
2023/02/22 04:23:42;;;;;;;7.53;2.83;;;7.70;99.90;;;;;;5044317;28;20576;-70
2023/02/22 04:26:08;;;;;;;11.07;3.53;;;7.70;99.90;;;;;;5028458;28;20237;-71
2023/02/22 04:28:33;;;;;;;12.53;3.63;;;7.50;99.90;;;;;;5048515;28;20210;-71
2023/02/22 04:30:59;;;;;;;18.03;3.07;;;7.40;99.90;;;;;;5037290;28;20185;-69
2023/02/22 04:33:24;;;;;;;11.47;3.13;;;7.40;99.90;;;;;;5031059;28;20181;-70
2023/02/22 04:35:50;;;;;;;19.10;4.33;;;7.30;99.90;;;;;;5025026;28;20192;-71
2023/02/22 04:38:16;;;;;;;15.20;3.30;;;7.30;99.90;;;;;;5028563;28;20824;-69
2023/02/22 04:40:42;;;;;;;12.70;2.70;;;7.30;99.90;;;;;;5026343;28;20551;-70
2023/02/22 04:43:07;;;;;;;12.40;2.00;;;7.20;99.90;;;;;;5024228;28;20424;-70
2023/02/22 04:45:33;;;;;;;9.67;3.60;;;7.20;99.90;;;;;;5024505;28;20218;-69
2023/02/22 04:47:58;;;;;;;11.53;2.80;;;7.20;99.90;;;;;;5028485;28;20388;-69
2023/02/22 04:50:24;;;;;;;4.83;2.90;;;7.20;99.90;;;;;;5030276;28;20593;-70
2023/02/22 04:52:50;;;;;;;9.93;3.00;;;7.20;99.90;;;;;;5026637;28;20183;-70
2023/02/22 04:55:15;;;;;;;8.17;2.77;;;7.20;99.90;;;;;;5026633;28;20180;-70
2023/02/22 04:57:41;;;;;;;7.10;3.10;;;7.20;99.90;;;;;;5022059;28;20888;-70
2023/02/22 05:00:09;;;;;;;8.47;2.80;;;7.20;99.90;;;;;;5021514;28;20198;-70
2023/02/22 05:02:37;;;;;;;8.20;4.10;;;7.20;99.90;;;;;;5026132;28;20204;-69
2023/02/22 05:05:04;;;;;;;6.30;2.43;;;7.10;99.90;;;;;;5022984;28;20466;-69
2023/02/22 05:07:29;;;;;;;9.73;3.10;;;7.10;99.90;;;;;;5021547;28;20438;-70
2023/02/22 05:09:55;;;;;;;5.20;2.80;;;7.10;99.90;;;;;;5010123;28;20472;-69
2023/02/22 05:12:20;;;;;;;5.87;2.50;;;7.10;99.90;;;;;;5025299;28;20175;-70
2023/02/22 05:14:46;;;;;;;8.13;2.47;;;7.00;99.90;;;;;;5029009;28;20676;-70
2023/02/22 05:17:12;;;;;;;9.63;2.80;;;7.10;99.90;;;;;;5022092;28;20319;-69
2023/02/22 05:19:37;;;;;;;12.80;3.70;;;7.10;99.90;;;;;;5026867;28;20198;-70
2023/02/22 05:22:04;;;;;;;9.90;3.07;;;7.10;99.90;;;;;;5032165;28;20171;-70
2023/02/22 05:24:31;;;;;;;8.20;3.70;;;7.10;99.90;;;;;;5020534;28;20187;-70
2023/02/22 05:26:56;;;;;;;17.23;5.40;;;7.10;99.90;;;;;;5025805;28;20440;-71
2023/02/22 05:29:22;;;;;;;8.60;3.27;;;7.20;99.90;;;;;;5025894;28;21165;-70
2023/02/22 05:31:48;;;;;;;11.70;2.70;;;7.20;99.90;;;;;;5005796;28;20490;-70
2023/02/22 05:34:14;;;;;;;11.90;3.40;;;7.20;99.90;;;;;;5024268;28;20175;-68
2023/02/22 05:36:40;;;;;;;4.63;3.43;;;7.20;99.90;;;;;;5019308;28;20296;-70
2023/02/22 05:39:06;;;;;;;12.83;3.67;;;7.20;99.90;;;;;;5034775;28;20844;-69
2023/02/22 05:41:31;;;;;;;14.90;3.17;;;7.30;99.90;;;;;;5024339;28;20418;-70
2023/02/22 05:43:57;;;;;;;15.33;3.43;;;7.30;99.90;;;;;;5027123;28;20199;-70
2023/02/22 05:46:22;;;;;;;10.93;2.80;;;7.30;99.90;;;;;;5023598;28;20176;-72
2023/02/22 05:48:48;;;;;;;11.43;3.57;;;7.40;99.90;;;;;;5026058;28;20223;-70
2023/02/22 05:51:14;;;;;;;8.83;3.10;;;7.40;99.90;;;;;;5025005;28;20184;-69
2023/02/22 05:53:39;;;;;;;13.50;2.93;;;7.40;99.90;;;;;;5025589;28;20650;-70
2023/02/22 05:56:05;;;;;;;17.30;3.30;;;7.40;99.90;;;;;;5036832;28;20169;-69
2023/02/22 05:58:31;;;;;;;12.67;2.80;;;7.40;99.90;;;;;;5025845;28;20300;-69
2023/02/22 06:00:56;;;;;;;8.90;4.40;;;7.30;99.90;;;;;;5023750;28;20661;-69
2023/02/22 06:03:22;;;;;;;10.37;3.70;;;7.40;99.90;;;;;;5025655;28;20218;-70
2023/02/22 06:05:47;;;;;;;13.47;4.03;;;7.40;99.90;;;;;;5023014;28;20169;-70
2023/02/22 06:08:13;;;;;;;17.10;3.97;;;7.50;99.90;;;;;;5029652;28;20519;-70
2023/02/22 06:10:39;;;;;;;12.87;3.10;;;7.50;99.90;;;;;;5026254;28;20672;-69
2023/02/22 06:13:05;;;;;;;9.80;4.57;;;7.40;99.90;;;;;;5027309;28;20179;-69
2023/02/22 06:15:31;;;;;;;16.53;3.30;;;7.50;99.90;;;;;;4994912;22;1310940;-72
2023/02/22 06:17:57;;;;;;;9.77;3.33;;;7.50;99.90;;;;;;5012337;28;20216;-70
2023/02/22 06:20:25;;;;;;;10.27;3.57;;;7.60;99.90;;;;;;5013535;28;20177;-70
2023/02/22 06:22:51;;;;;;;10.53;3.20;;;7.60;99.90;;;;;;5015707;28;20464;-70
2023/02/22 06:25:21;;;;;;;6.53;3.37;;;7.60;99.90;;;;;;5024539;28;20437;-69
2023/02/22 06:27:47;;;;;;;12.50;3.50;;;7.60;99.90;;;;;;5016908;28;21071;-71
2023/02/22 06:30:14;;;;;;;9.90;3.40;;;7.60;99.90;;;;;;5010152;28;20458;-69
2023/02/22 06:32:40;;;;;;;10.13;3.30;;;7.60;99.90;;;;;;5013071;28;20455;-70
2023/02/22 06:35:05;;;;;;;14.00;4.10;;;7.60;99.90;;;;;;5009474;28;20465;-71
2023/02/22 06:37:31;;;;;;;9.43;3.60;;;7.60;99.90;;;;;;5014806;28;20211;-71
2023/02/22 06:39:57;;;;;;;12.93;4.40;;;7.70;99.90;;;;;;5012623;28;20438;-69
2023/02/22 06:42:22;;;;;;;18.70;4.73;;;7.80;99.90;;;;;;5012214;28;20674;-68
2023/02/22 06:44:48;;;;;;;22.33;4.60;;;7.80;99.90;;;;;;5011248;28;20205;-70
2023/02/22 06:47:14;;;;;;;20.97;5.27;;;7.90;99.90;;;;;;5008910;28;20184;-68
2023/02/22 06:49:40;;;;;;;14.10;4.03;;;7.90;99.90;;;;;;5014150;28;20197;-70
2023/02/22 06:52:07;;;;;;;12.13;5.37;;;7.90;99.90;;;;;;5011545;28;20443;-71
2023/02/22 06:54:33;;;;;;;14.07;6.20;;;7.90;99.90;;;;;;5011206;28;20242;-70
2023/02/22 06:56:59;;;;;;;15.50;4.00;;;8.00;99.90;;;;;;5009535;28;21188;-71
2023/02/22 06:59:25;;;;;;;12.53;5.00;;;8.00;99.90;;;;;;5010479;28;20610;-71
2023/02/22 07:01:50;;;;;;;24.37;4.80;;;8.00;99.90;;;;;;5014071;28;20223;-70
2023/02/22 07:04:16;;;;;;;10.43;4.30;;;8.00;99.90;;;;;;5011117;28;20483;-71
2023/02/22 07:06:45;;;;;;;7.83;4.60;;;8.00;99.90;;;;;;5009182;28;20188;-70
2023/02/22 07:09:12;;;;;;;13.53;4.30;;;8.00;99.90;;;;;;5009868;28;20197;-71
2023/02/22 07:11:38;;;;;;;10.97;3.97;;;8.00;99.90;;;;;;5012055;28;20457;-70
2023/02/22 07:14:04;;;;;;;12.53;5.30;;;8.10;99.90;;;;;;5017793;28;20438;-69
2023/02/22 07:16:30;;;;;;;17.07;5.03;;;8.10;99.90;;;;;;5009690;28;20452;-70
2023/02/22 07:18:55;;;;;;;17.90;4.43;;;8.20;99.90;;;;;;5010726;28;20432;-70
2023/02/22 07:21:21;;;;;;;16.20;4.83;;;8.30;99.90;;;;;;5008392;28;20236;-72
2023/02/22 07:23:54;;;;;;;14.67;4.70;;;8.30;99.90;;;;;;5012410;28;20180;-71
2023/02/22 07:26:22;;;;;;;12.97;4.63;;;8.30;99.90;;;;;;5009533;28;20651;-71
2023/02/22 07:28:48;;;;;;;15.80;5.83;;;8.30;99.90;;;;;;5009210;28;20439;-70
2023/02/22 07:31:14;;;;;;;16.20;5.90;;;8.40;99.90;;;;;;5009713;28;20487;-71
2023/02/22 07:33:39;;;;;;;10.00;5.60;;;8.40;99.90;;;;;;4994779;28;20518;-70
2023/02/22 07:36:05;;;;;;;13.63;5.40;;;8.50;99.90;;;;;;5011706;28;20565;-72
2023/02/22 07:38:31;;;;;;;9.70;3.73;;;8.50;99.90;;;;;;5011946;28;20206;-70
2023/02/22 07:40:57;;;;;;;12.43;4.47;;;8.60;99.90;;;;;;5010332;28;20448;-69
2023/02/22 07:43:25;;;;;;;14.50;4.80;;;8.70;99.90;;;;;;5009725;28;20182;-69
2023/02/22 07:45:53;;;;;;;12.20;4.03;;;8.70;99.90;;;;;;5012931;28;20535;-70
2023/02/22 07:48:20;;;;;;;13.77;5.17;;;8.80;99.90;;;;;;5017091;28;20446;-70
2023/02/22 07:50:46;;;;;;;14.70;5.40;;;8.80;99.90;;;;;;5011690;28;20437;-70
2023/02/22 07:53:18;;;;;;;21.70;6.73;;;8.70;99.90;;;;;;5011178;28;20917;-70
2023/02/22 07:55:43;;;;;;;16.90;6.50;;;8.80;99.90;;;;;;5012559;28;20461;-71
2023/02/22 07:58:13;;;;;;;12.27;6.87;;;8.60;99.90;;;;;;5011710;28;20560;-70
2023/02/22 08:00:40;;;;;;;20.13;8.00;;;8.60;99.90;;;;;;5009401;28;20251;-71
2023/02/22 08:03:08;;;;;;;16.67;8.20;;;8.80;99.90;;;;;;5013311;28;20925;-71
2023/02/22 08:05:36;;;;;;;12.67;7.40;;;8.70;99.90;;;;;;5013355;28;20443;-70
2023/02/22 08:08:03;;;;;;;16.37;6.50;;;8.70;99.90;;;;;;5010372;28;20841;-70
2023/02/22 08:10:29;;;;;;;10.27;5.57;;;8.70;99.90;;;;;;5010487;28;20431;-70
2023/02/22 08:12:55;;;;;;;6.60;4.80;;;8.60;99.90;;;;;;5013008;28;20435;-71
2023/02/22 08:15:27;;;;;;;11.17;4.47;;;8.70;99.90;;;;;;5013830;28;20491;-70
2023/02/22 08:17:53;;;;;;;15.60;5.10;;;8.80;99.90;;;;;;5011099;28;20993;-70
2023/02/22 08:20:18;;;;;;;10.50;5.43;;;8.80;99.90;;;;;;5010772;28;20426;-70
2023/02/22 08:22:45;;;;;;;11.83;4.90;;;8.90;99.90;;;;;;5020160;28;20407;-71
2023/02/22 08:25:14;;;;;;;15.70;4.63;;;8.90;99.90;;;;;;5024073;28;20619;-70
2023/02/22 08:27:40;;;;;;;20.83;5.37;;;8.90;99.90;;;;;;5010476;28;20499;-70
2023/02/22 08:30:06;;;;;;;12.97;4.30;;;8.90;99.90;;;;;;5009575;28;20951;-71
2023/02/22 08:32:32;;;;;;;18.97;4.50;;;9.00;99.90;;;;;;5010019;28;20201;-70
2023/02/22 08:34:58;;;;;;;12.03;4.73;;;8.90;99.90;;;;;;5007804;28;20464;-70
2023/02/22 08:37:23;;;;;;;7.40;4.60;;;8.80;99.90;;;;;;5009720;28;20465;-71
2023/02/22 08:39:49;;;;;;;12.30;4.63;;;8.80;99.90;;;;;;5011554;28;20190;-71
2023/02/22 08:42:14;;;;;;;14.13;4.40;;;9.00;99.90;;;;;;5011664;28;20639;-71
2023/02/22 08:44:40;;;;;;;12.60;4.50;;;9.10;99.90;;;;;;5010948;28;20294;-71
2023/02/22 08:47:07;;;;;;;5.70;4.07;;;9.10;99.90;;;;;;5008702;28;20184;-71
2023/02/22 08:49:32;;;;;;;10.83;4.60;;;9.20;99.90;;;;;;5009321;28;20220;-69
2023/02/22 08:51:58;;;;;;;12.67;4.43;;;9.30;99.90;;;;;;5009788;28;20922;-71
2023/02/22 08:54:24;;;;;;;22.60;4.43;;;9.30;99.90;;;;;;5008508;28;20204;-71
2023/02/22 08:56:49;;;;;;;10.17;3.80;;;9.30;99.90;;;;;;5009005;28;20205;-71
2023/02/22 08:59:16;;;;;;;9.90;4.00;;;9.20;99.90;;;;;;5009491;28;20176;-71
2023/02/22 09:01:42;;;;;;;16.27;4.37;;;9.30;99.90;;;;;;5007632;28;20236;-71
2023/02/22 09:04:07;;;;;;;16.33;4.00;;;9.10;99.90;;;;;;5008574;28;20423;-70
2023/02/22 09:06:34;;;;;;;12.00;4.40;;;9.10;99.90;;;;;;5008603;28;20994;-70
2023/02/22 09:08:59;;;;;;;12.63;4.30;;;9.20;99.90;;;;;;5008048;28;20210;-70
2023/02/22 09:11:25;;;;;;;16.70;4.70;;;9.30;99.90;;;;;;5007020;28;20439;-69
2023/02/22 09:13:51;;;;;;;10.60;4.17;;;9.50;99.90;;;;;;5008873;28;20184;-70
2023/02/22 09:16:18;;;;;;;14.67;5.07;;;9.50;99.90;;;;;;5010936;28;20215;-69
2023/02/22 09:18:43;;;;;;;11.73;5.10;;;9.60;99.90;;;;;;5009342;28;20210;-69
2023/02/22 09:21:10;;;;;;;10.23;3.50;;;9.80;99.90;;;;;;5006967;28;20529;-70
2023/02/22 09:23:36;;;;;;;9.87;3.60;;;9.90;99.90;;;;;;5007797;28;20180;-70
2023/02/22 09:26:01;;;;;;;9.80;4.73;;;9.90;99.90;;;;;;5009249;28;20513;-70
2023/02/22 09:28:27;;;;;;;16.53;4.60;;;10.10;99.90;;;;;;5009838;28;20183;-70
2023/02/22 09:30:53;;;;;;;15.10;4.80;;;10.20;99.90;;;;;;5009289;28;20183;-70
2023/02/22 09:33:20;;;;;;;21.13;4.77;;;10.20;99.90;;;;;;5006916;28;20215;-70
2023/02/22 09:35:48;;;;;;;11.23;3.90;;;10.10;99.90;;;;;;4992373;28;20662;-70
2023/02/22 09:38:17;;;;;;;12.47;3.57;;;10.10;99.90;;;;;;5006823;28;20465;-69
2023/02/22 09:40:55;;;;;;;9.57;3.47;;;10.20;99.90;;;;;;5007831;28;20438;-70
2023/02/22 09:43:55;;;;;;;8.93;3.90;;;10.20;99.90;;;;;;4990240;28;20528;-70
2023/02/22 09:46:22;;;;;;;10.77;4.00;;;10.20;99.90;;;;;;5010380;28;21028;-70
2023/02/22 09:49:07;;;;;;;8.03;3.83;;;10.50;99.90;;;;;;5015596;28;20445;-71
2023/02/22 09:51:54;;;;;;;15.23;3.30;;;10.60;99.90;;;;;;5011424;28;20446;-70
2023/02/22 09:54:39;;;;;;;12.33;5.67;;;10.30;99.90;;;;;;5011834;28;20455;-71
2023/02/22 09:57:12;;;;;;;11.87;4.20;;;10.40;99.90;;;;;;5019884;28;20746;-71
2023/02/22 10:00:11;;;;;;;13.77;3.90;;;10.40;99.90;;;;;;5011415;28;20577;-71
2023/02/22 10:02:58;;;;;;;9.00;3.97;;;10.40;99.90;;;;;;5009549;28;20455;-71
2023/02/22 10:05:36;;;;;;;9.50;3.73;;;10.30;99.90;;;;;;5003642;28;20474;-71
2023/02/22 10:08:09;;;;;;;16.13;4.00;;;10.20;99.90;;;;;;5012583;28;20931;-71
2023/02/22 10:10:38;;;;;;;11.27;3.30;;;10.40;99.90;;;;;;5018151;28;20809;-71
2023/02/22 10:13:26;;;;;;;16.77;6.03;;;10.40;99.90;;;;;;5012068;28;20458;-71
2023/02/22 10:15:57;;;;;;;10.93;3.70;;;10.40;99.90;;;;;;5013971;28;20965;-70
2023/02/22 10:18:42;;;;;;;10.27;3.97;;;10.40;99.90;;;;;;5013248;28;20478;-70
2023/02/22 10:21:41;;;;;;;18.47;4.30;;;10.40;99.90;;;;;;5021831;28;20430;-70
2023/02/22 10:24:37;;;;;;;12.87;3.57;;;10.30;99.90;;;;;;5010176;28;20497;-72
2023/02/22 10:27:18;;;;;;;17.97;3.67;;;10.30;99.90;;;;;;5013564;28;20916;-71
2023/02/22 10:29:53;;;;;;;13.73;3.03;;;10.50;99.90;;;;;;5012775;28;20442;-70
2023/02/22 10:32:24;;;;;;;6.53;3.10;;;10.60;99.90;;;;;;5010330;28;20496;-70
2023/02/22 10:34:52;;;;;;;11.80;3.17;;;10.60;99.90;;;;;;5014127;28;20473;-69
2023/02/22 10:37:28;;;;;;;10.40;2.50;;;10.60;99.90;;;;;;5014242;28;20455;-67
2023/02/22 10:40:16;;;;;;;6.57;3.03;;;10.50;99.90;;;;;;5016693;28;20444;-70
2023/02/22 10:42:42;;;;;;;9.07;2.77;;;10.60;99.90;;;;;;5011926;28;20485;-68
2023/02/22 10:45:25;;;;;;;8.00;4.30;;;10.60;99.90;;;;;;5015317;28;20554;-69
2023/02/22 10:47:54;;;;;;;14.60;2.83;;;10.90;99.90;;;;;;5011887;28;20427;-69
2023/02/22 10:50:21;;;;;;;14.13;3.03;;;10.90;99.90;;;;;;5010597;28;20803;-69
2023/02/22 10:52:47;;;;;;;8.90;3.70;;;10.90;99.90;;;;;;5012025;28;20910;-69
2023/02/22 10:55:15;;;;;;;10.20;2.40;;;11.00;99.90;;;;;;5008946;28;20482;-68
2023/02/22 10:57:45;;;;;;;10.40;3.67;;;10.80;99.90;;;;;;5009124;28;20208;-68
2023/02/22 11:00:18;;;;;;;10.03;2.53;;;10.70;99.90;;;;;;5013917;28;20437;-69
2023/02/22 11:02:56;;;;;;;8.40;3.10;;;10.70;99.90;;;;;;5022036;28;20782;-70
2023/02/22 11:05:44;;;;;;;6.83;2.83;;;10.60;99.90;;;;;;5021000;28;20479;-69
2023/02/22 11:08:19;;;;;;;10.07;3.40;;;10.60;99.90;;;;;;5019553;28;20521;-69
2023/02/22 11:10:46;;;;;;;7.00;2.10;;;10.60;99.90;;;;;;5023602;28;20415;-69
2023/02/22 11:13:24;;;;;;;9.83;3.33;;;10.60;99.90;;;;;;5020943;28;20423;-69
2023/02/22 11:15:51;;;;;;;7.43;2.73;;;10.60;99.90;;;;;;5020204;28;20462;-69
2023/02/22 11:18:26;;;;;;;8.20;3.47;;;10.40;99.90;;;;;;5014296;28;20504;-69
2023/02/22 11:21:03;;;;;;;10.13;2.50;;;10.50;99.90;;;;;;5023742;28;20502;-70
2023/02/22 11:23:30;;;;;;;10.30;2.53;;;10.70;99.90;;;;;;5025519;28;20406;-69
2023/02/22 11:26:22;;;;;;;9.23;3.50;;;10.60;99.90;;;;;;5024359;28;20931;-69
2023/02/22 11:28:54;;;;;;;11.03;3.73;;;10.60;99.90;;;;;;5008633;28;20427;-68
2023/02/22 11:31:26;;;;;;;6.20;2.50;;;10.60;99.90;;;;;;5017288;28;20514;-68
2023/02/22 11:33:57;;;;;;;15.47;3.90;;;10.80;99.90;;;;;;5014452;28;20493;-69
2023/02/22 11:36:39;;;;;;;14.43;4.37;;;10.90;99.90;;;;;;5021133;28;20407;-69
2023/02/22 11:39:19;;;;;;;13.83;3.23;;;10.40;99.90;;;;;;5011864;28;20948;-69
2023/02/22 11:41:48;;;;;;;9.97;2.60;;;10.20;99.90;;;;;;5017639;28;20435;-68
2023/02/22 11:44:28;;;;;;;7.43;2.43;;;10.50;99.90;;;;;;5024756;28;20453;-69
2023/02/22 11:46:56;;;;;;;19.00;3.83;;;10.80;99.90;;;;;;5013998;28;20909;-72
2023/02/22 11:49:34;;;;;;;13.87;4.03;;;10.50;99.90;;;;;;5022988;28;20755;-70
2023/02/22 11:52:27;;;;;;;6.17;1.97;;;10.70;99.90;;;;;;5022242;28;20487;-69
2023/02/22 11:55:01;;;;;;;12.77;3.30;;;10.70;99.90;;;;;;5014537;28;20435;-70
2023/02/22 11:57:46;;;;;;;8.57;2.60;;;10.90;99.90;;;;;;5023414;28;20457;-70
2023/02/22 12:00:15;;;;;;;11.07;3.60;;;10.60;99.90;;;;;;5017413;28;20404;-69
2023/02/22 12:03:01;;;;;;;6.00;2.70;;;10.70;99.90;;;;;;5021768;28;20395;-69
2023/02/22 12:05:58;;;;;;;10.63;3.47;;;10.70;99.90;;;;;;5014917;28;20420;-70
2023/02/22 12:09:05;;;;;;;12.50;3.10;;;10.70;99.90;;;;;;5009566;28;20426;-69
2023/02/22 12:11:30;;;;;;;15.90;3.77;;;10.70;99.90;;;;;;4983276;28;20571;-68
2023/02/22 12:14:06;;;;;;;10.03;2.70;;;10.90;99.90;;;;;;4983596;28;20930;-70
2023/02/22 12:17:03;;;;;;;15.67;3.90;;;11.00;99.90;;;;;;5028274;22;20669;-67
2023/02/22 12:19:59;;;;;;;15.10;2.57;;;10.90;99.90;;;;;;4999191;28;20418;-65
2023/02/22 12:22:35;;;;;;;7.03;3.67;;;11.10;99.90;;;;;;5033425;28;20453;-66
2023/02/22 12:25:23;;;;;;;8.03;2.73;;;11.00;99.90;;;;;;5023623;28;20422;-66
2023/02/22 12:27:54;;;;;;;8.27;2.70;;;11.00;99.90;;;;;;5044097;28;20826;-66
2023/02/22 12:30:28;;;;;;;15.30;2.97;;;11.20;99.90;;;;;;5038386;28;20402;-64
2023/02/22 12:33:09;;;;;;;11.47;2.97;;;11.30;99.90;;;;;;5044635;28;20406;-65
2023/02/22 12:35:39;;;;;;;14.27;3.20;;;11.20;99.90;;;;;;5036766;28;20489;-65
2023/02/22 12:38:36;;;;;;;12.13;2.90;;;11.00;99.90;;;;;;5037982;28;20520;-65
2023/02/22 12:41:17;;;;;;;11.47;4.33;;;10.90;99.90;;;;;;5025047;28;20740;-65
2023/02/22 12:43:52;;;;;;;4.97;2.97;;;10.80;99.90;;;;;;5031209;28;20402;-65
2023/02/22 12:46:40;;;;;;;10.97;4.80;;;10.90;99.90;;;;;;5041167;28;20449;-66
2023/02/22 12:49:43;;;;;;;14.33;3.30;;;11.10;99.90;;;;;;5029328;28;20460;-65
2023/02/22 12:52:20;;;;;;;9.97;2.37;;;11.00;99.90;;;;;;5033863;28;20447;-64
2023/02/22 12:54:52;;;;;;;5.80;3.40;;;10.80;99.90;;;;;;5028957;28;20446;-65
2023/02/22 12:57:30;;;;;;;9.20;3.50;;;10.80;99.90;;;;;;5034407;28;20553;-65
2023/02/22 13:00:02;;;;;;;9.00;3.53;;;10.80;99.90;;;;;;5038430;28;20405;-65
2023/02/22 13:02:49;;;;;;;10.60;6.17;;;10.80;99.90;;;;;;5038015;28;20472;-65
2023/02/22 13:05:17;;;;;;;5.30;2.47;;;10.80;99.90;;;;;;5038949;28;20408;-66
2023/02/22 13:08:06;;;;;;;6.10;2.67;;;10.80;99.90;;;;;;5036794;28;20509;-66